QLK1986 YWLM-YBBN
Flight info
| Callsign | QLK1986 |
|---|---|
| Flight time | 1h 0m |
| Altitude | 39000 |
| Route | UBSON DCT NICLA DCT BANDA H252 GOMOL |
| Aircraft | E190/M-SDGHIRWYZ/EB1 |
Departure
| Time | 2026-05-07 09:37 |
|---|---|
| Airport | Newcastle Airport (YWLM) |
Arrival
| Time | 2026-05-07 10:38 |
|---|---|
| Airport | Brisbane International Airport (YBBN) |
| Time | Latitude | Longitude | Altitude | Speed | Heading |
|---|---|---|---|---|---|
| 2026-05-07 08:48 | -32.80474 | 151.84142 | 24 ft | 0 kts | 236° |
| 2026-05-07 09:26 | -32.80471 | 151.84146 | 25 ft | 3 kts | 235° |
| 2026-05-07 09:26 | -32.80454 | 151.84170 | 26 ft | 4 kts | 215° |
| 2026-05-07 09:27 | -32.80431 | 151.84184 | 25 ft | 4 kts | 186° |
| 2026-05-07 09:27 | -32.80413 | 151.84184 | 22 ft | 1 kts | 170° |
| 2026-05-07 09:27 | -32.80410 | 151.84183 | 22 ft | 0 kts | 170° |
| 2026-05-07 09:31 | -32.80416 | 151.84185 | 24 ft | 1 kts | 168° |
| 2026-05-07 09:32 | -32.80431 | 151.84193 | 24 ft | 4 kts | 149° |
| 2026-05-07 09:32 | -32.80468 | 151.84271 | 22 ft | 12 kts | 88° |
| 2026-05-07 09:32 | -32.80432 | 151.84330 | 21 ft | 14 kts | 41° |
| 2026-05-07 09:32 | -32.80395 | 151.84365 | 23 ft | 0 kts | 38° |
| 2026-05-07 09:34 | -32.80393 | 151.84366 | 23 ft | 1 kts | 38° |
| 2026-05-07 09:34 | -32.80383 | 151.84376 | 22 ft | 4 kts | 38° |
| 2026-05-07 09:34 | -32.80353 | 151.84404 | 24 ft | 7 kts | 38° |
| 2026-05-07 09:34 | -32.80302 | 151.84445 | 23 ft | 10 kts | 17° |
| 2026-05-07 09:35 | -32.80269 | 151.84425 | 24 ft | 0 kts | 310° |
| 2026-05-07 09:36 | -32.80267 | 151.84423 | 24 ft | 2 kts | 310° |
| 2026-05-07 09:36 | -32.80183 | 151.84303 | 24 ft | 53 kts | 310° |
| 2026-05-07 09:37 | -32.79776 | 151.83737 | 29 ft | 125 kts | 310° |
| 2026-05-07 09:37 | -32.79145 | 151.82811 | 370 ft | 157 kts | 306° |
| 2026-05-07 09:37 | -32.78420 | 151.81765 | 1251 ft | 171 kts | 304° |
| 2026-05-07 09:37 | -32.77624 | 151.80707 | 2057 ft | 172 kts | 302° |
| 2026-05-07 09:38 | -32.76828 | 151.79610 | 2709 ft | 178 kts | 300° |
| 2026-05-07 09:38 | -32.76019 | 151.78488 | 3302 ft | 184 kts | 299° |
| 2026-05-07 09:38 | -32.75161 | 151.77290 | 3756 ft | 199 kts | 300° |
| 2026-05-07 09:38 | -32.74229 | 151.75987 | 4206 ft | 217 kts | 301° |
| 2026-05-07 09:39 | -32.73173 | 151.74537 | 4567 ft | 243 kts | 307° |
| 2026-05-07 09:39 | -32.71644 | 151.73484 | 5082 ft | 275 kts | 339° |
| 2026-05-07 09:39 | -32.69662 | 151.73397 | 5699 ft | 294 kts | 3° |
| 2026-05-07 09:39 | -32.67614 | 151.73675 | 6389 ft | 298 kts | 1° |
| 2026-05-07 09:40 | -32.65563 | 151.73658 | 7076 ft | 299 kts | 359° |
| 2026-05-07 09:40 | -32.63515 | 151.74270 | 7733 ft | 307 kts | 23° |
| 2026-05-07 09:40 | -32.61560 | 151.75323 | 8385 ft | 309 kts | 21° |
| 2026-05-07 09:40 | -32.59586 | 151.76287 | 9019 ft | 312 kts | 20° |
| 2026-05-07 09:41 | -32.57540 | 151.77263 | 9683 ft | 316 kts | 19° |
| 2026-05-07 09:41 | -32.55474 | 151.78227 | 10238 ft | 325 kts | 19° |
| 2026-05-07 09:41 | -32.53303 | 151.79235 | 10454 ft | 343 kts | 19° |
| 2026-05-07 09:41 | -32.51033 | 151.80282 | 10718 ft | 358 kts | 18° |
| 2026-05-07 09:42 | -32.48695 | 151.81355 | 11090 ft | 367 kts | 19° |
| 2026-05-07 09:42 | -32.46327 | 151.82436 | 11798 ft | 370 kts | 18° |
| 2026-05-07 09:42 | -32.43892 | 151.83544 | 12182 ft | 378 kts | 18° |
| 2026-05-07 09:42 | -32.41422 | 151.84678 | 12679 ft | 382 kts | 18° |
| 2026-05-07 09:43 | -32.38920 | 151.85820 | 13071 ft | 390 kts | 16° |
| 2026-05-07 09:43 | -32.36406 | 151.86973 | 13467 ft | 390 kts | 17° |
| 2026-05-07 09:43 | -32.33899 | 151.88125 | 13991 ft | 380 kts | 14° |
| 2026-05-07 09:43 | -32.31420 | 151.89214 | 14700 ft | 381 kts | 14° |
| 2026-05-07 09:44 | -32.28929 | 151.90339 | 15311 ft | 385 kts | 15° |
| 2026-05-07 09:44 | -32.26410 | 151.91518 | 15826 ft | 392 kts | 14° |
| 2026-05-07 09:44 | -32.23839 | 151.92686 | 16300 ft | 400 kts | 15° |
| 2026-05-07 09:44 | -32.21270 | 151.93848 | 17086 ft | 398 kts | 13° |
| 2026-05-07 09:45 | -32.18651 | 151.95009 | 17537 ft | 405 kts | 13° |
| 2026-05-07 09:45 | -32.15975 | 151.96213 | 18011 ft | 414 kts | 12° |
| 2026-05-07 09:45 | -32.13249 | 151.97435 | 18531 ft | 422 kts | 12° |
| 2026-05-07 09:45 | -32.10514 | 151.98666 | 19051 ft | 426 kts | 12° |
| 2026-05-07 09:46 | -32.07723 | 151.99920 | 19614 ft | 431 kts | 12° |
| 2026-05-07 09:46 | -32.04914 | 152.01215 | 20181 ft | 438 kts | 13° |
| 2026-05-07 09:46 | -32.02070 | 152.02517 | 20855 ft | 438 kts | 12° |
| 2026-05-07 09:46 | -31.99209 | 152.03811 | 21466 ft | 441 kts | 12° |
| 2026-05-07 09:47 | -31.96328 | 152.05092 | 21975 ft | 441 kts | 10° |
| 2026-05-07 09:47 | -31.93478 | 152.06374 | 22548 ft | 446 kts | 12° |
| 2026-05-07 09:47 | -31.90574 | 152.07740 | 23063 ft | 449 kts | 11° |
| 2026-05-07 09:47 | -31.87652 | 152.09046 | 23558 ft | 450 kts | 10° |
| 2026-05-07 09:48 | -31.84702 | 152.10346 | 23994 ft | 453 kts | 10° |
| 2026-05-07 09:48 | -31.81741 | 152.11658 | 24459 ft | 453 kts | 10° |
| 2026-05-07 09:48 | -31.78838 | 152.12972 | 24946 ft | 453 kts | 11° |
| 2026-05-07 09:48 | -31.75891 | 152.14309 | 25361 ft | 455 kts | 10° |
| 2026-05-07 09:49 | -31.72924 | 152.15648 | 25283 ft | 452 kts | 11° |
| 2026-05-07 09:49 | -31.69979 | 152.16975 | 25263 ft | 455 kts | 10° |
| 2026-05-07 09:49 | -31.67001 | 152.18323 | 25268 ft | 460 kts | 12° |
| 2026-05-07 09:49 | -31.64011 | 152.19689 | 25234 ft | 460 kts | 11° |
| 2026-05-07 09:50 | -31.60997 | 152.21022 | 25215 ft | 465 kts | 11° |
| 2026-05-07 09:50 | -31.58011 | 152.22377 | 25150 ft | 466 kts | 11° |
| 2026-05-07 09:50 | -31.54984 | 152.23745 | 25162 ft | 466 kts | 11° |
| 2026-05-07 09:50 | -31.51950 | 152.25114 | 25168 ft | 461 kts | 12° |
| 2026-05-07 09:51 | -31.48986 | 152.26436 | 25148 ft | 454 kts | 12° |
| 2026-05-07 09:51 | -31.46020 | 152.27764 | 25153 ft | 455 kts | 12° |
| 2026-05-07 09:51 | -31.43058 | 152.29113 | 25157 ft | 457 kts | 12° |
| 2026-05-07 09:51 | -31.40090 | 152.30446 | 25157 ft | 457 kts | 12° |
| 2026-05-07 09:52 | -31.37154 | 152.31785 | 25140 ft | 456 kts | 12° |
| 2026-05-07 09:52 | -31.34187 | 152.33114 | 25159 ft | 457 kts | 12° |
| 2026-05-07 09:52 | -31.31211 | 152.34450 | 25158 ft | 457 kts | 12° |
| 2026-05-07 09:52 | -31.28261 | 152.35796 | 25185 ft | 455 kts | 13° |
| 2026-05-07 09:53 | -31.25311 | 152.37133 | 25176 ft | 453 kts | 12° |
| 2026-05-07 09:53 | -31.22355 | 152.38457 | 25199 ft | 454 kts | 13° |
| 2026-05-07 09:53 | -31.19449 | 152.39816 | 25162 ft | 454 kts | 13° |
| 2026-05-07 09:53 | -31.16496 | 152.41115 | 25142 ft | 452 kts | 11° |
| 2026-05-07 09:54 | -31.13534 | 152.42400 | 25154 ft | 455 kts | 12° |
| 2026-05-07 09:54 | -31.10584 | 152.43718 | 25162 ft | 453 kts | 12° |
| 2026-05-07 09:54 | -31.07627 | 152.45029 | 25131 ft | 452 kts | 12° |
| 2026-05-07 09:54 | -31.04675 | 152.46339 | 25142 ft | 454 kts | 12° |
| 2026-05-07 09:55 | -31.01726 | 152.47662 | 25141 ft | 454 kts | 12° |
| 2026-05-07 09:55 | -30.98803 | 152.48952 | 25144 ft | 455 kts | 13° |
| 2026-05-07 09:55 | -30.95852 | 152.50298 | 25179 ft | 454 kts | 13° |
| 2026-05-07 09:55 | -30.92900 | 152.51621 | 25162 ft | 453 kts | 12° |
| 2026-05-07 09:56 | -30.89936 | 152.52918 | 25161 ft | 454 kts | 11° |
| 2026-05-07 09:56 | -30.86986 | 152.54226 | 25170 ft | 451 kts | 12° |
| 2026-05-07 09:56 | -30.84088 | 152.55526 | 25181 ft | 447 kts | 12° |
| 2026-05-07 09:56 | -30.81166 | 152.56827 | 25170 ft | 448 kts | 12° |
| 2026-05-07 09:57 | -30.78237 | 152.58091 | 25161 ft | 444 kts | 9° |
| 2026-05-07 09:57 | -30.75318 | 152.59132 | 25144 ft | 443 kts | 7° |
| 2026-05-07 09:57 | -30.72356 | 152.60162 | 25145 ft | 444 kts | 8° |
| 2026-05-07 09:57 | -30.69390 | 152.61224 | 25145 ft | 445 kts | 8° |
| 2026-05-07 09:58 | -30.66435 | 152.62281 | 25162 ft | 444 kts | 8° |
| 2026-05-07 09:58 | -30.63470 | 152.63351 | 25138 ft | 445 kts | 8° |
| 2026-05-07 09:58 | -30.60519 | 152.64419 | 25193 ft | 439 kts | 9° |
| 2026-05-07 09:58 | -30.57611 | 152.65474 | 25143 ft | 443 kts | 9° |
| 2026-05-07 09:59 | -30.54682 | 152.66536 | 25154 ft | 439 kts | 9° |
| 2026-05-07 09:59 | -30.51755 | 152.67603 | 25169 ft | 442 kts | 9° |
| 2026-05-07 09:59 | -30.48853 | 152.68671 | 25144 ft | 441 kts | 8° |
| 2026-05-07 09:59 | -30.45920 | 152.69709 | 25178 ft | 440 kts | 9° |
| 2026-05-07 10:00 | -30.42988 | 152.70794 | 25148 ft | 440 kts | 9° |
| 2026-05-07 10:00 | -30.40056 | 152.71857 | 25123 ft | 440 kts | 8° |
| 2026-05-07 10:00 | -30.37157 | 152.72861 | 25152 ft | 442 kts | 9° |
| 2026-05-07 10:00 | -30.34213 | 152.73934 | 25152 ft | 441 kts | 9° |
| 2026-05-07 10:01 | -30.31286 | 152.74990 | 25155 ft | 440 kts | 9° |
| 2026-05-07 10:01 | -30.28352 | 152.76046 | 25151 ft | 440 kts | 9° |
| 2026-05-07 10:01 | -30.25418 | 152.77092 | 25145 ft | 440 kts | 9° |
| 2026-05-07 10:01 | -30.22530 | 152.78132 | 25141 ft | 440 kts | 9° |
| 2026-05-07 10:02 | -30.19599 | 152.79193 | 25138 ft | 440 kts | 9° |
| 2026-05-07 10:02 | -30.16670 | 152.80254 | 25133 ft | 440 kts | 9° |
| 2026-05-07 10:02 | -30.13745 | 152.81293 | 25151 ft | 437 kts | 9° |
| 2026-05-07 10:02 | -30.10839 | 152.82355 | 25147 ft | 436 kts | 9° |
| 2026-05-07 10:03 | -30.07966 | 152.83378 | 25124 ft | 437 kts | 8° |
| 2026-05-07 10:03 | -30.05061 | 152.84413 | 25116 ft | 436 kts | 8° |
| 2026-05-07 10:03 | -30.02155 | 152.85450 | 25138 ft | 436 kts | 9° |
| 2026-05-07 10:03 | -29.99255 | 152.86496 | 25135 ft | 436 kts | 9° |
| 2026-05-07 10:04 | -29.96387 | 152.87546 | 25134 ft | 437 kts | 9° |
| 2026-05-07 10:04 | -29.93495 | 152.88676 | 25132 ft | 438 kts | 9° |
| 2026-05-07 10:04 | -29.90592 | 152.89724 | 25136 ft | 433 kts | 8° |
| 2026-05-07 10:04 | -29.87693 | 152.90725 | 25112 ft | 432 kts | 8° |
| 2026-05-07 10:05 | -29.84846 | 152.91709 | 25112 ft | 434 kts | 8° |
| 2026-05-07 10:05 | -29.81949 | 152.92712 | 25108 ft | 433 kts | 8° |
| 2026-05-07 10:05 | -29.79060 | 152.93723 | 25117 ft | 434 kts | 8° |
| 2026-05-07 10:05 | -29.76172 | 152.94735 | 25107 ft | 434 kts | 8° |
| 2026-05-07 10:06 | -29.73276 | 152.95754 | 25110 ft | 434 kts | 8° |
| 2026-05-07 10:06 | -29.70389 | 152.96772 | 25104 ft | 434 kts | 8° |
| 2026-05-07 10:06 | -29.67532 | 152.97781 | 25111 ft | 430 kts | 8° |
| 2026-05-07 10:06 | -29.64671 | 152.98791 | 25106 ft | 429 kts | 8° |
| 2026-05-07 10:07 | -29.61815 | 152.99797 | 25107 ft | 430 kts | 8° |
| 2026-05-07 10:07 | -29.58951 | 153.00807 | 25100 ft | 430 kts | 8° |
| 2026-05-07 10:07 | -29.56087 | 153.01816 | 25100 ft | 430 kts | 8° |
| 2026-05-07 10:07 | -29.53223 | 153.02826 | 25099 ft | 430 kts | 8° |
| 2026-05-07 10:08 | -29.50354 | 153.03836 | 25104 ft | 430 kts | 8° |
| 2026-05-07 10:08 | -29.47524 | 153.04832 | 25101 ft | 430 kts | 8° |
| 2026-05-07 10:08 | -29.44653 | 153.05843 | 25079 ft | 430 kts | 8° |
| 2026-05-07 10:08 | -29.41800 | 153.06847 | 25097 ft | 428 kts | 8° |
| 2026-05-07 10:09 | -29.38943 | 153.07853 | 25091 ft | 428 kts | 8° |
| 2026-05-07 10:09 | -29.36125 | 153.08836 | 25099 ft | 428 kts | 8° |
| 2026-05-07 10:09 | -29.33272 | 153.09839 | 25100 ft | 428 kts | 8° |
| 2026-05-07 10:09 | -29.30422 | 153.10834 | 25098 ft | 427 kts | 8° |
| 2026-05-07 10:10 | -29.27570 | 153.11832 | 25103 ft | 428 kts | 8° |
| 2026-05-07 10:10 | -29.24716 | 153.12839 | 25102 ft | 427 kts | 8° |
| 2026-05-07 10:10 | -29.21901 | 153.13829 | 25088 ft | 427 kts | 7° |
| 2026-05-07 10:10 | -29.19065 | 153.14833 | 25108 ft | 423 kts | 7° |
| 2026-05-07 10:11 | -29.16244 | 153.15825 | 25098 ft | 423 kts | 7° |
| 2026-05-07 10:11 | -29.13417 | 153.16819 | 25087 ft | 423 kts | 7° |
| 2026-05-07 10:11 | -29.10603 | 153.17807 | 25086 ft | 424 kts | 7° |
| 2026-05-07 10:11 | -29.07785 | 153.18797 | 25088 ft | 423 kts | 7° |
| 2026-05-07 10:12 | -29.04997 | 153.19773 | 25097 ft | 424 kts | 7° |
| 2026-05-07 10:12 | -29.02178 | 153.20761 | 25097 ft | 423 kts | 7° |
| 2026-05-07 10:12 | -28.99357 | 153.21749 | 25099 ft | 423 kts | 7° |
| 2026-05-07 10:12 | -28.96540 | 153.22737 | 25064 ft | 424 kts | 7° |
| 2026-05-07 10:13 | -28.93723 | 153.23725 | 25079 ft | 422 kts | 7° |
| 2026-05-07 10:13 | -28.90947 | 153.24695 | 25098 ft | 422 kts | 7° |
| 2026-05-07 10:13 | -28.88134 | 153.25677 | 25095 ft | 421 kts | 7° |
| 2026-05-07 10:13 | -28.85330 | 153.26657 | 25094 ft | 421 kts | 7° |
| 2026-05-07 10:14 | -28.82523 | 153.27638 | 25101 ft | 421 kts | 7° |
| 2026-05-07 10:14 | -28.79713 | 153.28621 | 25097 ft | 421 kts | 7° |
| 2026-05-07 10:14 | -28.76938 | 153.29588 | 25095 ft | 421 kts | 7° |
| 2026-05-07 10:14 | -28.74135 | 153.30570 | 25099 ft | 421 kts | 7° |
| 2026-05-07 10:15 | -28.71329 | 153.31546 | 25088 ft | 420 kts | 7° |
| 2026-05-07 10:15 | -28.68515 | 153.32522 | 25079 ft | 421 kts | 7° |
| 2026-05-07 10:15 | -28.65710 | 153.33497 | 25084 ft | 421 kts | 7° |
| 2026-05-07 10:15 | -28.62936 | 153.34461 | 25093 ft | 421 kts | 7° |
| 2026-05-07 10:16 | -28.60133 | 153.35439 | 25091 ft | 421 kts | 7° |
| 2026-05-07 10:16 | -28.57332 | 153.36414 | 25095 ft | 421 kts | 7° |
| 2026-05-07 10:16 | -28.54533 | 153.37384 | 25087 ft | 421 kts | 7° |
| 2026-05-07 10:16 | -28.51735 | 153.38380 | 25120 ft | 422 kts | 8° |
| 2026-05-07 10:17 | -28.48928 | 153.39359 | 25085 ft | 420 kts | 7° |
| 2026-05-07 10:17 | -28.46152 | 153.40301 | 25094 ft | 417 kts | 6° |
| 2026-05-07 10:17 | -28.43367 | 153.41234 | 25079 ft | 415 kts | 6° |
| 2026-05-07 10:17 | -28.40573 | 153.42191 | 25076 ft | 419 kts | 7° |
| 2026-05-07 10:18 | -28.38725 | 153.42843 | 25060 ft | 419 kts | 7° |
| 2026-05-07 10:18 | -28.35933 | 153.43815 | 25059 ft | 420 kts | 6° |
| 2026-05-07 10:18 | -28.33141 | 153.44781 | 25055 ft | 418 kts | 7° |
| 2026-05-07 10:18 | -28.30347 | 153.45749 | 24742 ft | 420 kts | 7° |
| 2026-05-07 10:19 | -28.27588 | 153.46705 | 24443 ft | 417 kts | 7° |
| 2026-05-07 10:19 | -28.24806 | 153.47663 | 23826 ft | 418 kts | 7° |
| 2026-05-07 10:19 | -28.22021 | 153.48618 | 23206 ft | 414 kts | 7° |
| 2026-05-07 10:19 | -28.19283 | 153.49569 | 22704 ft | 408 kts | 7° |
| 2026-05-07 10:20 | -28.16562 | 153.50185 | 22120 ft | 387 kts | 351° |
| 2026-05-07 10:20 | -28.13958 | 153.49797 | 21682 ft | 372 kts | 340° |
| 2026-05-07 10:20 | -28.11432 | 153.49240 | 21186 ft | 374 kts | 341° |
| 2026-05-07 10:20 | -28.08868 | 153.48693 | 20695 ft | 374 kts | 341° |
| 2026-05-07 10:21 | -28.06309 | 153.48152 | 20200 ft | 373 kts | 342° |
| 2026-05-07 10:21 | -28.03750 | 153.47616 | 19699 ft | 374 kts | 342° |
| 2026-05-07 10:21 | -28.01188 | 153.47105 | 19211 ft | 374 kts | 343° |
| 2026-05-07 10:21 | -27.98651 | 153.46595 | 18711 ft | 373 kts | 343° |
| 2026-05-07 10:22 | -27.96094 | 153.46077 | 18187 ft | 373 kts | 343° |
| 2026-05-07 10:22 | -27.93547 | 153.45557 | 17715 ft | 369 kts | 343° |
| 2026-05-07 10:22 | -27.91023 | 153.45040 | 17220 ft | 367 kts | 343° |
| 2026-05-07 10:22 | -27.88542 | 153.44531 | 16736 ft | 365 kts | 343° |
| 2026-05-07 10:23 | -27.86042 | 153.44015 | 16257 ft | 363 kts | 343° |
| 2026-05-07 10:23 | -27.83560 | 153.43504 | 15776 ft | 362 kts | 344° |
| 2026-05-07 10:23 | -27.81075 | 153.43009 | 15299 ft | 360 kts | 345° |
| 2026-05-07 10:23 | -27.78615 | 153.42499 | 14786 ft | 357 kts | 344° |
| 2026-05-07 10:24 | -27.76176 | 153.41992 | 14331 ft | 355 kts | 345° |
| 2026-05-07 10:24 | -27.73741 | 153.41486 | 13857 ft | 355 kts | 345° |
| 2026-05-07 10:24 | -27.71346 | 153.40991 | 13392 ft | 352 kts | 345° |
| 2026-05-07 10:24 | -27.68942 | 153.40498 | 12930 ft | 350 kts | 345° |
| 2026-05-07 10:25 | -27.66546 | 153.40003 | 12477 ft | 347 kts | 345° |
| 2026-05-07 10:25 | -27.64174 | 153.39527 | 12116 ft | 344 kts | 348° |
| 2026-05-07 10:25 | -27.61754 | 153.39425 | 11785 ft | 352 kts | 358° |
| 2026-05-07 10:25 | -27.59298 | 153.39585 | 11508 ft | 360 kts | 359° |
| 2026-05-07 10:26 | -27.56783 | 153.39723 | 11236 ft | 363 kts | 358° |
| 2026-05-07 10:26 | -27.54254 | 153.39853 | 10961 ft | 363 kts | 358° |
| 2026-05-07 10:26 | -27.51722 | 153.39980 | 10686 ft | 363 kts | 358° |
| 2026-05-07 10:26 | -27.49200 | 153.40101 | 10415 ft | 362 kts | 358° |
| 2026-05-07 10:27 | -27.46688 | 153.40222 | 10142 ft | 360 kts | 359° |
| 2026-05-07 10:27 | -27.44266 | 153.40335 | 9644 ft | 365 kts | 358° |
| 2026-05-07 10:27 | -27.41815 | 153.40453 | 9204 ft | 340 kts | 358° |
| 2026-05-07 10:27 | -27.39534 | 153.40562 | 9113 ft | 321 kts | 358° |
| 2026-05-07 10:28 | -27.37313 | 153.40664 | 9195 ft | 318 kts | 358° |
| 2026-05-07 10:28 | -27.35078 | 153.40762 | 9043 ft | 322 kts | 358° |
| 2026-05-07 10:28 | -27.32871 | 153.40864 | 8892 ft | 320 kts | 358° |
| 2026-05-07 10:28 | -27.30647 | 153.40966 | 8825 ft | 319 kts | 358° |
| 2026-05-07 10:29 | -27.28425 | 153.41069 | 8736 ft | 319 kts | 358° |
| 2026-05-07 10:29 | -27.26205 | 153.41168 | 8625 ft | 319 kts | 358° |
| 2026-05-07 10:29 | -27.23979 | 153.41269 | 8557 ft | 318 kts | 358° |
| 2026-05-07 10:30 | -27.19554 | 153.41277 | 8074 ft | 312 kts | 342° |
| 2026-05-07 10:30 | -27.17666 | 153.40222 | 7826 ft | 299 kts | 317° |
| 2026-05-07 10:30 | -27.16168 | 153.38634 | 7417 ft | 300 kts | 313° |
| 2026-05-07 10:30 | -27.14632 | 153.37051 | 7006 ft | 299 kts | 315° |
| 2026-05-07 10:31 | -27.13100 | 153.35488 | 6554 ft | 293 kts | 309° |
| 2026-05-07 10:31 | -27.12190 | 153.33529 | 6161 ft | 279 kts | 279° |
| 2026-05-07 10:31 | -27.12359 | 153.31445 | 5915 ft | 266 kts | 249° |
| 2026-05-07 10:31 | -27.13381 | 153.29748 | 5599 ft | 260 kts | 234° |
| 2026-05-07 10:32 | -27.14428 | 153.28121 | 5246 ft | 254 kts | 239° |
| 2026-05-07 10:32 | -27.15385 | 153.26479 | 4907 ft | 248 kts | 237° |
| 2026-05-07 10:32 | -27.16641 | 153.25205 | 4537 ft | 250 kts | 211° |
| 2026-05-07 10:32 | -27.18231 | 153.24486 | 4195 ft | 240 kts | 205° |
| 2026-05-07 10:33 | -27.19684 | 153.23688 | 3850 ft | 224 kts | 213° |
| 2026-05-07 10:33 | -27.20987 | 153.22860 | 3592 ft | 206 kts | 210° |
| 2026-05-07 10:33 | -27.22221 | 153.22179 | 3338 ft | 191 kts | 209° |
| 2026-05-07 10:33 | -27.23392 | 153.21533 | 3086 ft | 184 kts | 210° |
| 2026-05-07 10:34 | -27.24513 | 153.20877 | 2838 ft | 183 kts | 211° |
| 2026-05-07 10:34 | -27.25628 | 153.20233 | 2600 ft | 178 kts | 209° |
| 2026-05-07 10:34 | -27.26719 | 153.19613 | 2356 ft | 172 kts | 210° |
| 2026-05-07 10:34 | -27.27765 | 153.19012 | 2128 ft | 165 kts | 211° |
| 2026-05-07 10:35 | -27.28769 | 153.18434 | 1916 ft | 157 kts | 211° |
| 2026-05-07 10:35 | -27.29702 | 153.17899 | 1714 ft | 146 kts | 211° |
| 2026-05-07 10:35 | -27.30568 | 153.17402 | 1521 ft | 137 kts | 211° |
| 2026-05-07 10:35 | -27.31400 | 153.16928 | 1328 ft | 131 kts | 211° |
| 2026-05-07 10:36 | -27.32210 | 153.16461 | 1168 ft | 130 kts | 210° |
| 2026-05-07 10:36 | -27.33016 | 153.16001 | 980 ft | 130 kts | 211° |
| 2026-05-07 10:36 | -27.33831 | 153.15522 | 722 ft | 134 kts | 213° |
| 2026-05-07 10:36 | -27.34629 | 153.15034 | 615 ft | 129 kts | 211° |
| 2026-05-07 10:37 | -27.35479 | 153.14570 | 442 ft | 135 kts | 209° |
| 2026-05-07 10:37 | -27.36292 | 153.14116 | 291 ft | 132 kts | 213° |
| 2026-05-07 10:37 | -27.37136 | 153.13631 | 128 ft | 136 kts | 211° |
| 2026-05-07 10:37 | -27.37964 | 153.13155 | 20 ft | 123 kts | 211° |
| 2026-05-07 10:38 | -27.38540 | 153.12818 | 21 ft | 64 kts | 207° |
| 2026-05-07 10:38 | -27.38867 | 153.12614 | 20 ft | 40 kts | 221° |
| 2026-05-07 10:38 | -27.39037 | 153.12411 | 20 ft | 29 kts | 235° |
| 2026-05-07 10:38 | -27.39125 | 153.12251 | 20 ft | 14 kts | 238° |
| 2026-05-07 10:39 | -27.39123 | 153.12147 | 20 ft | 15 kts | 316° |
| 2026-05-07 10:39 | -27.39028 | 153.12172 | 20 ft | 16 kts | 28° |
| 2026-05-07 10:39 | -27.38973 | 153.12203 | 21 ft | 0 kts | 26° |
| 2026-05-07 10:41 | -27.38946 | 153.12218 | 20 ft | 9 kts | 27° |
| 2026-05-07 10:41 | -27.38869 | 153.12268 | 20 ft | 17 kts | 28° |
| 2026-05-07 10:41 | -27.38739 | 153.12339 | 20 ft | 23 kts | 26° |
| 2026-05-07 10:41 | -27.38590 | 153.12423 | 22 ft | 25 kts | 27° |
| 2026-05-07 10:42 | -27.38466 | 153.12458 | 21 ft | 11 kts | 314° |
| 2026-05-07 10:42 | -27.38394 | 153.12416 | 20 ft | 13 kts | 351° |
| 2026-05-07 10:42 | -27.38295 | 153.12397 | 20 ft | 16 kts | 349° |
| 2026-05-07 10:42 | -27.38218 | 153.12335 | 20 ft | 11 kts | 297° |
| 2026-05-07 10:43 | -27.38191 | 153.12319 | 22 ft | 4 kts | 6° |
| 2026-05-07 10:43 | -27.38166 | 153.12334 | 21 ft | 1 kts | 33° |
| 2026-05-07 10:43 | -27.38161 | 153.12338 | 20 ft | 0 kts | 34° |